DLH326 EDDV-EDXW
Flight info
| Callsign | DLH326 |
|---|---|
| Flight time | 0h 36m |
| Altitude | 27000 |
| Route | NIE1S NIE Z595 YEFAW Y850 MUBZI M105 OMWEG/N0386F260 DCT BADOS DCT OLDIP |
| Aircraft | A319/M-SDE3FGHIRWY/LB1 |
Departure
| Time | 2026-03-26 10:37 |
|---|---|
| Airport | Hannover Airport (EDDV) |
Arrival
| Time | 2026-03-26 11:14 |
|---|---|
| Airport | Westerland Sylt Airport (EDXW) |
| Time | Latitude | Longitude | Altitude | Speed | Heading |
|---|---|---|---|---|---|
| 2026-03-26 10:37 | 52.55861 | 9.47988 | 8293 ft | 253 kts | 315° |
| 2026-03-26 10:37 | 52.57133 | 9.45965 | 9214 ft | 256 kts | 315° |
| 2026-03-26 10:37 | 52.58420 | 9.43903 | 10095 ft | 261 kts | 314° |
| 2026-03-26 10:37 | 52.59769 | 9.41737 | 10542 ft | 283 kts | 314° |
| 2026-03-26 10:38 | 52.61226 | 9.39393 | 11060 ft | 300 kts | 314° |
| 2026-03-26 10:38 | 52.62747 | 9.36987 | 11822 ft | 307 kts | 317° |
| 2026-03-26 10:38 | 52.64414 | 9.34742 | 12616 ft | 312 kts | 319° |
| 2026-03-26 10:38 | 52.66110 | 9.32471 | 13389 ft | 317 kts | 319° |
| 2026-03-26 10:39 | 52.67836 | 9.30165 | 14165 ft | 321 kts | 319° |
| 2026-03-26 10:39 | 52.69581 | 9.27831 | 14914 ft | 325 kts | 319° |
| 2026-03-26 10:39 | 52.71349 | 9.25457 | 15640 ft | 330 kts | 319° |
| 2026-03-26 10:39 | 52.73138 | 9.23048 | 16364 ft | 334 kts | 319° |
| 2026-03-26 10:40 | 52.74943 | 9.20607 | 17052 ft | 338 kts | 319° |
| 2026-03-26 10:40 | 52.76772 | 9.18131 | 17738 ft | 342 kts | 319° |
| 2026-03-26 10:40 | 52.78619 | 9.15627 | 18392 ft | 346 kts | 319° |
| 2026-03-26 10:40 | 52.80487 | 9.13090 | 19036 ft | 350 kts | 319° |
| 2026-03-26 10:41 | 52.82378 | 9.10522 | 19675 ft | 353 kts | 319° |
| 2026-03-26 10:41 | 52.84288 | 9.07926 | 20305 ft | 357 kts | 319° |
| 2026-03-26 10:41 | 52.86193 | 9.05338 | 20908 ft | 361 kts | 320° |
| 2026-03-26 10:41 | 52.88142 | 9.02691 | 21515 ft | 364 kts | 320° |
| 2026-03-26 10:42 | 52.90106 | 9.00015 | 22103 ft | 368 kts | 320° |
| 2026-03-26 10:42 | 52.92092 | 8.97306 | 22690 ft | 371 kts | 320° |
| 2026-03-26 10:42 | 52.94091 | 8.94575 | 23256 ft | 374 kts | 320° |
| 2026-03-26 10:43 | 52.98149 | 8.89021 | 24328 ft | 381 kts | 320° |
| 2026-03-26 10:43 | 53.00214 | 8.86230 | 24834 ft | 385 kts | 323° |
| 2026-03-26 10:43 | 53.02510 | 8.83923 | 25319 ft | 388 kts | 334° |
| 2026-03-26 10:43 | 53.05059 | 8.82388 | 25816 ft | 392 kts | 345° |
| 2026-03-26 10:44 | 53.07760 | 8.81704 | 26269 ft | 395 kts | 356° |
| 2026-03-26 10:44 | 53.10518 | 8.81922 | 26715 ft | 399 kts | 6° |
| 2026-03-26 10:44 | 53.13268 | 8.82563 | 26926 ft | 401 kts | 6° |
| 2026-03-26 10:44 | 53.15992 | 8.83189 | 26969 ft | 387 kts | 6° |
| 2026-03-26 10:45 | 53.18613 | 8.83788 | 26970 ft | 375 kts | 6° |
| 2026-03-26 10:45 | 53.21183 | 8.84375 | 26971 ft | 371 kts | 6° |
| 2026-03-26 10:45 | 53.23732 | 8.84958 | 26969 ft | 370 kts | 6° |
| 2026-03-26 10:45 | 53.26284 | 8.85542 | 26970 ft | 370 kts | 6° |
| 2026-03-26 10:46 | 53.28835 | 8.86127 | 26967 ft | 370 kts | 6° |
| 2026-03-26 10:46 | 53.31386 | 8.86716 | 26965 ft | 370 kts | 6° |
| 2026-03-26 10:46 | 53.33924 | 8.87369 | 26966 ft | 370 kts | 11° |
| 2026-03-26 10:46 | 53.36397 | 8.88655 | 26963 ft | 372 kts | 21° |
| 2026-03-26 10:47 | 53.38774 | 8.90346 | 26962 ft | 373 kts | 21° |
| 2026-03-26 10:47 | 53.41170 | 8.92045 | 26959 ft | 373 kts | 21° |
| 2026-03-26 10:47 | 53.43549 | 8.93729 | 26951 ft | 372 kts | 21° |
| 2026-03-26 10:47 | 53.45944 | 8.95428 | 26953 ft | 372 kts | 21° |
| 2026-03-26 10:48 | 53.48329 | 8.97127 | 26953 ft | 373 kts | 21° |
| 2026-03-26 10:48 | 53.50714 | 8.98825 | 26950 ft | 372 kts | 21° |
| 2026-03-26 10:48 | 53.53086 | 9.00548 | 26945 ft | 373 kts | 24° |
| 2026-03-26 10:48 | 53.55318 | 9.02793 | 26943 ft | 375 kts | 33° |
| 2026-03-26 10:49 | 53.57442 | 9.05346 | 26939 ft | 375 kts | 33° |
| 2026-03-26 10:49 | 53.59569 | 9.07898 | 26941 ft | 375 kts | 33° |
| 2026-03-26 10:49 | 53.61692 | 9.10440 | 26940 ft | 375 kts | 33° |
| 2026-03-26 10:49 | 53.63823 | 9.12985 | 26934 ft | 375 kts | 33° |
| 2026-03-26 10:50 | 53.65969 | 9.15548 | 26923 ft | 384 kts | 33° |
| 2026-03-26 10:50 | 53.68164 | 9.18171 | 26490 ft | 388 kts | 33° |
| 2026-03-26 10:50 | 53.70364 | 9.20812 | 25919 ft | 387 kts | 33° |
| 2026-03-26 10:50 | 53.72544 | 9.23440 | 25328 ft | 384 kts | 34° |
| 2026-03-26 10:51 | 53.74710 | 9.26056 | 24815 ft | 381 kts | 34° |
| 2026-03-26 10:51 | 53.76823 | 9.28613 | 24345 ft | 375 kts | 34° |
| 2026-03-26 10:51 | 53.78925 | 9.31161 | 23877 ft | 368 kts | 34° |
| 2026-03-26 10:51 | 53.81020 | 9.33654 | 23408 ft | 360 kts | 30° |
| 2026-03-26 10:52 | 53.83186 | 9.35576 | 22962 ft | 351 kts | 24° |
| 2026-03-26 10:52 | 53.85368 | 9.37343 | 22518 ft | 345 kts | 24° |
| 2026-03-26 10:52 | 53.87508 | 9.39092 | 22090 ft | 338 kts | 24° |
| 2026-03-26 10:52 | 53.89604 | 9.40811 | 21666 ft | 332 kts | 24° |
| 2026-03-26 10:53 | 53.91666 | 9.42505 | 21255 ft | 326 kts | 24° |
| 2026-03-26 10:53 | 53.93693 | 9.44169 | 20860 ft | 323 kts | 24° |
| 2026-03-26 10:53 | 53.95715 | 9.45825 | 20457 ft | 322 kts | 24° |
| 2026-03-26 10:53 | 53.97785 | 9.47172 | 20062 ft | 318 kts | 11° |
| 2026-03-26 10:54 | 53.99963 | 9.47650 | 19674 ft | 314 kts | 358° |
| 2026-03-26 10:54 | 54.02120 | 9.47268 | 19289 ft | 310 kts | 345° |
| 2026-03-26 10:54 | 54.04146 | 9.46078 | 18921 ft | 307 kts | 332° |
| 2026-03-26 10:54 | 54.05992 | 9.44305 | 18549 ft | 305 kts | 328° |
| 2026-03-26 10:55 | 54.07823 | 9.42498 | 18184 ft | 303 kts | 328° |
| 2026-03-26 10:55 | 54.09648 | 9.40704 | 17821 ft | 302 kts | 328° |
| 2026-03-26 10:55 | 54.11465 | 9.38916 | 17459 ft | 301 kts | 328° |
| 2026-03-26 10:55 | 54.13277 | 9.37129 | 17106 ft | 300 kts | 328° |
| 2026-03-26 10:56 | 54.15077 | 9.35353 | 16755 ft | 298 kts | 328° |
| 2026-03-26 10:56 | 54.16869 | 9.33582 | 16407 ft | 297 kts | 328° |
| 2026-03-26 10:56 | 54.18652 | 9.31815 | 16062 ft | 296 kts | 328° |
| 2026-03-26 10:56 | 54.20431 | 9.30050 | 15721 ft | 295 kts | 328° |
| 2026-03-26 10:57 | 54.22198 | 9.28296 | 15374 ft | 294 kts | 328° |
| 2026-03-26 10:57 | 54.23966 | 9.26540 | 15029 ft | 293 kts | 328° |
| 2026-03-26 10:57 | 54.25728 | 9.24787 | 14691 ft | 292 kts | 328° |
| 2026-03-26 10:57 | 54.27481 | 9.23037 | 14361 ft | 291 kts | 328° |
| 2026-03-26 10:58 | 54.30958 | 9.19566 | 13682 ft | 288 kts | 327° |
| 2026-03-26 10:58 | 54.32687 | 9.17842 | 13346 ft | 287 kts | 327° |
| 2026-03-26 10:58 | 54.34410 | 9.16121 | 12979 ft | 286 kts | 327° |
| 2026-03-26 10:59 | 54.36131 | 9.14400 | 12612 ft | 285 kts | 327° |
| 2026-03-26 10:59 | 54.37695 | 9.12346 | 12243 ft | 282 kts | 314° |
| 2026-03-26 10:59 | 54.39066 | 9.09959 | 11882 ft | 281 kts | 313° |
| 2026-03-26 10:59 | 54.40437 | 9.07581 | 11519 ft | 279 kts | 313° |
| 2026-03-26 11:00 | 54.41781 | 9.05251 | 11156 ft | 278 kts | 313° |
| 2026-03-26 11:00 | 54.43135 | 9.02907 | 10780 ft | 275 kts | 313° |
| 2026-03-26 11:00 | 54.44475 | 9.00586 | 10430 ft | 271 kts | 313° |
| 2026-03-26 11:00 | 54.45788 | 8.98307 | 10088 ft | 267 kts | 313° |
| 2026-03-26 11:01 | 54.47085 | 8.96053 | 9718 ft | 263 kts | 313° |
| 2026-03-26 11:01 | 54.48367 | 8.93825 | 9314 ft | 261 kts | 313° |
| 2026-03-26 11:01 | 54.49636 | 8.91614 | 8950 ft | 257 kts | 313° |
| 2026-03-26 11:01 | 54.50873 | 8.89457 | 8635 ft | 251 kts | 313° |
| 2026-03-26 11:02 | 54.52087 | 8.87339 | 8280 ft | 247 kts | 313° |
| 2026-03-26 11:02 | 54.53280 | 8.85253 | 7906 ft | 243 kts | 313° |
| 2026-03-26 11:02 | 54.54460 | 8.83186 | 7513 ft | 240 kts | 313° |
| 2026-03-26 11:02 | 54.55621 | 8.81154 | 7149 ft | 236 kts | 313° |
| 2026-03-26 11:03 | 54.56761 | 8.79151 | 6789 ft | 233 kts | 313° |
| 2026-03-26 11:03 | 54.57887 | 8.77170 | 6423 ft | 229 kts | 313° |
| 2026-03-26 11:03 | 54.58996 | 8.75219 | 6048 ft | 226 kts | 313° |
| 2026-03-26 11:03 | 54.60091 | 8.73296 | 5670 ft | 223 kts | 313° |
| 2026-03-26 11:04 | 54.61169 | 8.71409 | 5343 ft | 218 kts | 315° |
| 2026-03-26 11:04 | 54.62284 | 8.69776 | 5290 ft | 203 kts | 320° |
| 2026-03-26 11:04 | 54.63383 | 8.68384 | 5228 ft | 191 kts | 322° |
| 2026-03-26 11:04 | 54.64451 | 8.67075 | 5156 ft | 184 kts | 322° |
| 2026-03-26 11:05 | 54.65468 | 8.65834 | 5081 ft | 174 kts | 322° |
| 2026-03-26 11:05 | 54.66437 | 8.64650 | 5005 ft | 169 kts | 322° |
| 2026-03-26 11:05 | 54.67396 | 8.63479 | 4929 ft | 168 kts | 322° |
| 2026-03-26 11:05 | 54.68353 | 8.62310 | 4859 ft | 168 kts | 322° |
| 2026-03-26 11:06 | 54.69306 | 8.61145 | 4787 ft | 168 kts | 322° |
| 2026-03-26 11:06 | 54.70260 | 8.59978 | 4719 ft | 168 kts | 322° |
| 2026-03-26 11:06 | 54.71205 | 8.58823 | 4591 ft | 162 kts | 322° |
| 2026-03-26 11:06 | 54.72108 | 8.57718 | 4362 ft | 156 kts | 321° |
| 2026-03-26 11:07 | 54.72973 | 8.56659 | 4165 ft | 149 kts | 321° |
| 2026-03-26 11:07 | 54.73802 | 8.55644 | 3972 ft | 143 kts | 321° |
| 2026-03-26 11:07 | 54.74592 | 8.54675 | 3789 ft | 136 kts | 321° |
| 2026-03-26 11:07 | 54.75351 | 8.53745 | 3612 ft | 131 kts | 321° |
| 2026-03-26 11:08 | 54.76088 | 8.52840 | 3444 ft | 128 kts | 321° |
| 2026-03-26 11:08 | 54.76805 | 8.51958 | 3271 ft | 125 kts | 321° |
| 2026-03-26 11:08 | 54.77503 | 8.51101 | 3108 ft | 121 kts | 321° |
| 2026-03-26 11:08 | 54.78188 | 8.50260 | 2944 ft | 120 kts | 321° |
| 2026-03-26 11:09 | 54.78866 | 8.49426 | 2787 ft | 120 kts | 321° |
| 2026-03-26 11:09 | 54.79546 | 8.48589 | 2632 ft | 120 kts | 321° |
| 2026-03-26 11:09 | 54.80221 | 8.47758 | 2474 ft | 121 kts | 321° |
| 2026-03-26 11:09 | 54.80907 | 8.46914 | 2318 ft | 121 kts | 322° |
| 2026-03-26 11:10 | 54.81584 | 8.46081 | 2166 ft | 117 kts | 322° |
| 2026-03-26 11:10 | 54.82242 | 8.45271 | 2005 ft | 116 kts | 322° |
| 2026-03-26 11:10 | 54.82894 | 8.44467 | 1852 ft | 114 kts | 322° |
| 2026-03-26 11:10 | 54.83542 | 8.43667 | 1698 ft | 114 kts | 322° |
| 2026-03-26 11:11 | 54.84188 | 8.42871 | 1546 ft | 114 kts | 322° |
| 2026-03-26 11:11 | 54.84833 | 8.42075 | 1395 ft | 114 kts | 322° |
| 2026-03-26 11:11 | 54.85479 | 8.41277 | 1245 ft | 114 kts | 322° |
| 2026-03-26 11:11 | 54.86121 | 8.40484 | 1091 ft | 113 kts | 322° |
| 2026-03-26 11:12 | 54.86762 | 8.39693 | 940 ft | 113 kts | 322° |
| 2026-03-26 11:12 | 54.87400 | 8.38904 | 794 ft | 113 kts | 322° |
| 2026-03-26 11:12 | 54.88040 | 8.38113 | 655 ft | 113 kts | 322° |
| 2026-03-26 11:12 | 54.88683 | 8.37316 | 478 ft | 114 kts | 323° |
| 2026-03-26 11:13 | 54.89332 | 8.36516 | 357 ft | 115 kts | 323° |
| 2026-03-26 11:13 | 54.89990 | 8.35707 | 179 ft | 117 kts | 323° |
| 2026-03-26 11:13 | 54.90643 | 8.34898 | 39 ft | 111 kts | 322° |
| 2026-03-26 11:13 | 54.91120 | 8.34293 | 35 ft | 56 kts | 324° |
| 2026-03-26 11:14 | 54.91335 | 8.34028 | 35 ft | 32 kts | 325° |
| 2026-03-26 11:14 | 54.91514 | 8.33811 | 35 ft | 30 kts | 325° |
| 2026-03-26 11:14 | 54.91670 | 8.33586 | 36 ft | 28 kts | 302° |
| 2026-03-26 11:14 | 54.91728 | 8.33354 | 35 ft | 12 kts | 292° |
| 2026-03-26 11:15 | 54.91758 | 8.33225 | 35 ft | 9 kts | 280° |
| 2026-03-26 11:15 | 54.91712 | 8.33179 | 35 ft | 9 kts | 176° |
| 2026-03-26 11:15 | 54.91644 | 8.33180 | 35 ft | 11 kts | 181° |
| 2026-03-26 11:15 | 54.91563 | 8.33177 | 33 ft | 14 kts | 180° |
| 2026-03-26 11:16 | 54.91472 | 8.33187 | 29 ft | 12 kts | 161° |
| 2026-03-26 11:16 | 54.91405 | 8.33232 | 29 ft | 10 kts | 193° |
| 2026-03-26 11:16 | 54.91390 | 8.33206 | 29 ft | 1 kts | 237° |
| 2026-03-26 11:16 | 54.91385 | 8.33187 | 29 ft | 2 kts | 249° |
| 2026-03-26 11:17 | 54.91385 | 8.33152 | 29 ft | 4 kts | 272° |
| 2026-03-26 11:17 | 54.91385 | 8.33135 | 29 ft | 1 kts | 271° |
| 2026-03-26 11:17 | 54.91385 | 8.33118 | 29 ft | 0 kts | 271° |